Okabena, Minnesota
Current Conditions -  °F | °C
As of 5:15 AM on Wednesday 26 Nov 2014 (Local Time) from KOTG Reporting Station
Overcast Overcast  
Wind Chill: 17°   Ceiling: 800
Heat Index: 27°   Visibility: 5mi
Dew Point: 25°   Wind: 9mph
Humidity: 93%   Direction: 40°NE
Pressure: 29.9"   Gusts: NA
Location:  43.74°N, 95.32°W
Report Text: KOTG 261115Z AUTO 04008KT 5SM BKN008 OVC013 M03/M04 A2990 RMK AO1
Loading
Personal Weather Stations






























Interactive Weather Map New forecast layout! Learn more

10-Day Weather Forecast

Advertisements
Track Severe Weather on mobile